sensor_id;sensor_type;location;lat;lon;timestamp;pressure;altitude;pressure_sealevel;temperature;humidity
62038;BME280;47991;42.974;12.082;2022-11-20T00:01:25;96807.38;;;8.42;89.46
62038;BME280;47991;42.974;12.082;2022-11-20T00:03:55;96806.36;;;8.47;89.18
62038;BME280;47991;42.974;12.082;2022-11-20T00:06:23;96807.67;;;8.50;88.83
62038;BME280;47991;42.974;12.082;2022-11-20T00:08:54;96809.39;;;8.46;88.92
62038;BME280;47991;42.974;12.082;2022-11-20T00:11:23;96810.54;;;8.43;88.87
62038;BME280;47991;42.974;12.082;2022-11-20T00:13:54;96806.10;;;8.38;88.98
62038;BME280;47991;42.974;12.082;2022-11-20T00:16:23;96800.17;;;8.41;89.00
62038;BME280;47991;42.974;12.082;2022-11-20T00:18:51;96797.48;;;8.44;88.87
62038;BME280;47991;42.974;12.082;2022-11-20T00:21:21;96796.98;;;8.43;89.18
62038;BME280;47991;42.974;12.082;2022-11-20T00:23:50;96798.52;;;8.45;88.85
62038;BME280;47991;42.974;12.082;2022-11-20T00:26:20;96802.96;;;8.37;88.39
62038;BME280;47991;42.974;12.082;2022-11-20T00:28:56;96807.58;;;8.26;88.96
62038;BME280;47991;42.974;12.082;2022-11-20T00:31:24;96807.80;;;8.30;89.37
62038;BME280;47991;42.974;12.082;2022-11-20T00:33:51;96809.91;;;8.35;89.30
62038;BME280;47991;42.974;12.082;2022-11-20T00:36:21;96810.21;;;8.36;89.17
62038;BME280;47991;42.974;12.082;2022-11-20T00:38:53;96818.36;;;8.40;89.09
62038;BME280;47991;42.974;12.082;2022-11-20T00:41:21;96818.61;;;8.43;88.93
62038;BME280;47991;42.974;12.082;2022-11-20T00:43:48;96813.97;;;8.46;88.41
62038;BME280;47991;42.974;12.082;2022-11-20T00:46:18;96817.74;;;8.43;88.66
62038;BME280;47991;42.974;12.082;2022-11-20T00:48:46;96819.13;;;8.44;87.96
62038;BME280;47991;42.974;12.082;2022-11-20T00:51:16;96818.06;;;8.38;88.46
62038;BME280;47991;42.974;12.082;2022-11-20T00:53:44;96823.23;;;8.37;88.14
62038;BME280;47991;42.974;12.082;2022-11-20T00:56:13;96827.20;;;8.34;88.46
62038;BME280;47991;42.974;12.082;2022-11-20T00:58:43;96826.10;;;8.35;88.51
62038;BME280;47991;42.974;12.082;2022-11-20T01:01:13;96829.86;;;8.28;88.14
62038;BME280;47991;42.974;12.082;2022-11-20T01:03:43;96832.63;;;8.25;88.45
62038;BME280;47991;42.974;12.082;2022-11-20T01:06:34;96838.77;;;8.20;88.56
62038;BME280;47991;42.974;12.082;2022-11-20T01:09:10;96840.55;;;8.14;88.92
62038;BME280;47991;42.974;12.082;2022-11-20T01:11:41;96838.70;;;8.12;88.97
62038;BME280;47991;42.974;12.082;2022-11-20T01:14:17;96841.67;;;8.07;89.28
62038;BME280;47991;42.974;12.082;2022-11-20T01:16:48;96844.79;;;8.03;89.38
62038;BME280;47991;42.974;12.082;2022-11-20T01:19:17;96843.60;;;7.97;89.60
62038;BME280;47991;42.974;12.082;2022-11-20T01:21:47;96844.34;;;7.90;89.92
62038;BME280;47991;42.974;12.082;2022-11-20T01:24:17;96845.66;;;7.87;89.86
62038;BME280;47991;42.974;12.082;2022-11-20T01:26:46;96848.18;;;7.85;90.10
62038;BME280;47991;42.974;12.082;2022-11-20T01:29:17;96849.36;;;7.82;90.09
62038;BME280;47991;42.974;12.082;2022-11-20T01:31:45;96850.19;;;7.77;90.22
62038;BME280;47991;42.974;12.082;2022-11-20T01:34:17;96852.50;;;7.71;90.31
62038;BME280;47991;42.974;12.082;2022-11-20T01:36:47;96851.36;;;7.69;90.66
62038;BME280;47991;42.974;12.082;2022-11-20T01:39:17;96857.49;;;7.63;90.91
62038;BME280;47991;42.974;12.082;2022-11-20T01:41:46;96860.42;;;7.60;91.01
62038;BME280;47991;42.974;12.082;2022-11-20T01:44:54;96858.79;;;7.56;91.22
62038;BME280;47991;42.974;12.082;2022-11-20T01:47:44;96856.57;;;7.54;91.33
62038;BME280;47991;42.974;12.082;2022-11-20T01:50:24;96857.43;;;7.54;91.50
62038;BME280;47991;42.974;12.082;2022-11-20T01:53:03;96860.78;;;7.54;91.46
62038;BME280;47991;42.974;12.082;2022-11-20T01:55:34;96864.55;;;7.52;91.44
62038;BME280;47991;42.974;12.082;2022-11-20T01:58:04;96866.19;;;7.49;91.66
62038;BME280;47991;42.974;12.082;2022-11-20T02:00:32;96871.83;;;7.49;91.43
62038;BME280;47991;42.974;12.082;2022-11-20T02:03:07;96867.62;;;7.48;91.36
62038;BME280;47991;42.974;12.082;2022-11-20T02:05:41;96870.61;;;7.49;91.44
62038;BME280;47991;42.974;12.082;2022-11-20T02:08:12;96870.91;;;7.50;91.39
62038;BME280;47991;42.974;12.082;2022-11-20T02:10:39;96867.80;;;7.54;91.10
62038;BME280;47991;42.974;12.082;2022-11-20T02:13:07;96870.23;;;7.56;91.25
62038;BME280;47991;42.974;12.082;2022-11-20T02:15:54;96868.65;;;7.56;91.35
62038;BME280;47991;42.974;12.082;2022-11-20T02:18:23;96869.39;;;7.54;91.48
62038;BME280;47991;42.974;12.082;2022-11-20T02:20:58;96871.78;;;7.56;91.02
62038;BME280;47991;42.974;12.082;2022-11-20T02:23:36;96875.31;;;7.56;90.70
62038;BME280;47991;42.974;12.082;2022-11-20T02:26:08;96873.94;;;7.55;90.80
62038;BME280;47991;42.974;12.082;2022-11-20T02:28:37;96877.80;;;7.56;90.65
62038;BME280;47991;42.974;12.082;2022-11-20T02:31:05;96874.48;;;7.61;90.59
62038;BME280;47991;42.974;12.082;2022-11-20T02:33:34;96875.02;;;7.65;90.46
62038;BME280;47991;42.974;12.082;2022-11-20T02:36:02;96873.15;;;7.69;90.17
62038;BME280;47991;42.974;12.082;2022-11-20T02:38:30;96870.48;;;7.71;90.03
62038;BME280;47991;42.974;12.082;2022-11-20T02:40:57;96870.10;;;7.60;90.45
62038;BME280;47991;42.974;12.082;2022-11-20T02:43:24;96868.52;;;7.48;90.76
62038;BME280;47991;42.974;12.082;2022-11-20T02:45:54;96874.71;;;7.35;91.74
62038;BME280;47991;42.974;12.082;2022-11-20T02:48:21;96877.22;;;7.28;92.14
62038;BME280;47991;42.974;12.082;2022-11-20T02:50:49;96880.70;;;7.23;92.60
62038;BME280;47991;42.974;12.082;2022-11-20T02:53:18;96883.16;;;7.11;92.90
62038;BME280;47991;42.974;12.082;2022-11-20T02:55:45;96881.56;;;7.05;92.91
62038;BME280;47991;42.974;12.082;2022-11-20T02:58:12;96881.36;;;7.06;93.07
62038;BME280;47991;42.974;12.082;2022-11-20T03:00:40;96883.80;;;7.13;92.66
62038;BME280;47991;42.974;12.082;2022-11-20T03:03:08;96883.09;;;7.13;92.46
62038;BME280;47991;42.974;12.082;2022-11-20T03:05:36;96882.10;;;7.23;92.16
62038;BME280;47991;42.974;12.082;2022-11-20T03:08:04;96881.08;;;7.28;91.95
62038;BME280;47991;42.974;12.082;2022-11-20T03:10:32;96884.19;;;7.36;91.66
62038;BME280;47991;42.974;12.082;2022-11-20T03:12:59;96885.67;;;7.40;91.37
62038;BME280;47991;42.974;12.082;2022-11-20T03:15:27;96888.73;;;7.42;91.37
62038;BME280;47991;42.974;12.082;2022-11-20T03:17:54;96885.73;;;7.49;91.40
62038;BME280;47991;42.974;12.082;2022-11-20T03:20:22;96879.27;;;7.53;91.16
62038;BME280;47991;42.974;12.082;2022-11-20T03:22:50;96874.50;;;7.48;91.00
62038;BME280;47991;42.974;12.082;2022-11-20T03:25:18;96871.88;;;7.36;90.97
62038;BME280;47991;42.974;12.082;2022-11-20T03:27:45;96873.51;;;7.28;91.30
62038;BME280;47991;42.974;12.082;2022-11-20T03:30:14;96869.52;;;7.32;91.46
62038;BME280;47991;42.974;12.082;2022-11-20T03:32:42;96865.27;;;7.40;91.45
62038;BME280;47991;42.974;12.082;2022-11-20T03:35:10;96863.25;;;7.48;91.12
62038;BME280;47991;42.974;12.082;2022-11-20T03:37:39;96860.27;;;7.48;90.33
62038;BME280;47991;42.974;12.082;2022-11-20T03:40:07;96853.36;;;7.38;90.41
62038;BME280;47991;42.974;12.082;2022-11-20T03:42:35;96848.55;;;7.34;90.57
62038;BME280;47991;42.974;12.082;2022-11-20T03:45:13;96850.98;;;7.35;90.94
62038;BME280;47991;42.974;12.082;2022-11-20T03:47:41;96852.23;;;7.40;90.65
62038;BME280;47991;42.974;12.082;2022-11-20T03:50:11;96850.38;;;7.43;90.69
62038;BME280;47991;42.974;12.082;2022-11-20T03:52:40;96848.65;;;7.42;90.28
62038;BME280;47991;42.974;12.082;2022-11-20T03:55:09;96844.16;;;7.40;90.06
62038;BME280;47991;42.974;12.082;2022-11-20T03:57:38;96851.58;;;7.33;90.05
62038;BME280;47991;42.974;12.082;2022-11-20T04:00:06;96854.13;;;7.24;90.01
62038;BME280;47991;42.974;12.082;2022-11-20T04:02:33;96858.02;;;7.23;90.29
62038;BME280;47991;42.974;12.082;2022-11-20T04:05:00;96860.14;;;7.17;90.30
62038;BME280;47991;42.974;12.082;2022-11-20T04:07:29;96864.48;;;7.13;90.51
62038;BME280;47991;42.974;12.082;2022-11-20T04:09:57;96867.77;;;7.14;90.41
62038;BME280;47991;42.974;12.082;2022-11-20T04:12:25;96871.46;;;7.14;90.50
62038;BME280;47991;42.974;12.082;2022-11-20T04:14:52;96876.25;;;7.13;90.53
62038;BME280;47991;42.974;12.082;2022-11-20T04:17:19;96875.42;;;7.11;90.32
62038;BME280;47991;42.974;12.082;2022-11-20T04:19:47;96873.55;;;7.09;90.41
62038;BME280;47991;42.974;12.082;2022-11-20T04:22:14;96876.55;;;6.90;89.31
62038;BME280;47991;42.974;12.082;2022-11-20T04:24:41;96887.98;;;6.70;89.43
62038;BME280;47991;42.974;12.082;2022-11-20T04:27:09;96889.77;;;6.63;90.15
62038;BME280;47991;42.974;12.082;2022-11-20T04:29:36;96895.50;;;6.59;90.64
62038;BME280;47991;42.974;12.082;2022-11-20T04:32:06;96895.88;;;6.57;90.06
62038;BME280;47991;42.974;12.082;2022-11-20T04:34:33;96894.17;;;6.55;90.23
62038;BME280;47991;42.974;12.082;2022-11-20T04:37:00;96894.28;;;6.58;90.17
62038;BME280;47991;42.974;12.082;2022-11-20T04:39:28;96893.11;;;6.62;89.78
62038;BME280;47991;42.974;12.082;2022-11-20T04:41:56;96890.30;;;6.62;89.78
62038;BME280;47991;42.974;12.082;2022-11-20T04:44:43;96889.58;;;6.63;89.61
62038;BME280;47991;42.974;12.082;2022-11-20T04:47:10;96897.30;;;6.57;89.21
62038;BME280;47991;42.974;12.082;2022-11-20T04:49:37;96903.90;;;6.46;89.11
62038;BME280;47991;42.974;12.082;2022-11-20T04:52:05;96909.98;;;6.41;89.58
62038;BME280;47991;42.974;12.082;2022-11-20T04:54:32;96909.11;;;6.41;89.62
62038;BME280;47991;42.974;12.082;2022-11-20T04:57:00;96908.27;;;6.40;89.44
62038;BME280;47991;42.974;12.082;2022-11-20T04:59:27;96902.63;;;6.41;89.33
62038;BME280;47991;42.974;12.082;2022-11-20T05:01:55;96902.52;;;6.39;89.58
62038;BME280;47991;42.974;12.082;2022-11-20T05:04:23;96903.23;;;6.30;89.10
62038;BME280;47991;42.974;12.082;2022-11-20T05:06:50;96904.77;;;6.04;88.74
62038;BME280;47991;42.974;12.082;2022-11-20T05:09:18;96905.30;;;6.04;89.19
62038;BME280;47991;42.974;12.082;2022-11-20T05:11:45;96903.73;;;6.03;89.75
62038;BME280;47991;42.974;12.082;2022-11-20T05:14:14;96904.02;;;6.06;89.44
62038;BME280;47991;42.974;12.082;2022-11-20T05:16:42;96906.89;;;6.04;89.22
62038;BME280;47991;42.974;12.082;2022-11-20T05:19:09;96908.18;;;6.01;89.63
62038;BME280;47991;42.974;12.082;2022-11-20T05:21:37;96909.53;;;6.03;90.24
62038;BME280;47991;42.974;12.082;2022-11-20T05:24:05;96911.70;;;6.08;89.98
62038;BME280;47991;42.974;12.082;2022-11-20T05:26:33;96915.88;;;6.01;89.55
62038;BME280;47991;42.974;12.082;2022-11-20T05:29:00;96916.53;;;5.95;89.72
62038;BME280;47991;42.974;12.082;2022-11-20T05:31:28;96918.84;;;5.94;89.88
62038;BME280;47991;42.974;12.082;2022-11-20T05:33:56;96923.27;;;5.91;89.39
62038;BME280;47991;42.974;12.082;2022-11-20T05:36:24;96922.94;;;5.91;89.76
62038;BME280;47991;42.974;12.082;2022-11-20T05:38:52;96928.67;;;5.93;89.32
62038;BME280;47991;42.974;12.082;2022-11-20T05:41:20;96939.32;;;5.97;89.52
62038;BME280;47991;42.974;12.082;2022-11-20T05:43:49;96946.07;;;5.92;89.41
62038;BME280;47991;42.974;12.082;2022-11-20T05:46:19;96946.89;;;5.87;89.61
62038;BME280;47991;42.974;12.082;2022-11-20T05:48:47;96949.81;;;5.90;89.10
62038;BME280;47991;42.974;12.082;2022-11-20T05:51:18;96949.73;;;5.86;88.82
62038;BME280;47991;42.974;12.082;2022-11-20T05:53:46;96950.25;;;5.77;88.84
62038;BME280;47991;42.974;12.082;2022-11-20T05:56:16;96951.27;;;5.71;89.19
62038;BME280;47991;42.974;12.082;2022-11-20T05:58:44;96953.14;;;5.66;89.23
62038;BME280;47991;42.974;12.082;2022-11-20T06:03:43;96960.45;;;5.60;88.87
62038;BME280;47991;42.974;12.082;2022-11-20T06:06:14;96968.36;;;5.59;88.91
62038;BME280;47991;42.974;12.082;2022-11-20T06:08:42;96970.87;;;5.57;89.18
62038;BME280;47991;42.974;12.082;2022-11-20T06:11:11;96974.23;;;5.55;89.51
62038;BME280;47991;42.974;12.082;2022-11-20T06:13:40;96972.77;;;5.59;89.33
62038;BME280;47991;42.974;12.082;2022-11-20T06:16:09;96979.25;;;5.67;89.70
62038;BME280;47991;42.974;12.082;2022-11-20T06:18:37;96982.91;;;5.76;89.56
62038;BME280;47991;42.974;12.082;2022-11-20T06:21:07;96979.89;;;5.77;89.10
62038;BME280;47991;42.974;12.082;2022-11-20T06:23:36;96983.59;;;5.69;89.15
62038;BME280;47991;42.974;12.082;2022-11-20T06:26:09;96986.98;;;5.65;89.46
62038;BME280;47991;42.974;12.082;2022-11-20T06:28:37;96989.97;;;5.74;89.97
62038;BME280;47991;42.974;12.082;2022-11-20T06:31:06;96987.09;;;5.77;89.31
62038;BME280;47991;42.974;12.082;2022-11-20T06:33:34;96986.14;;;5.73;89.74
62038;BME280;47991;42.974;12.082;2022-11-20T06:36:02;96992.66;;;5.71;89.54
62038;BME280;47991;42.974;12.082;2022-11-20T06:38:30;96992.30;;;5.72;89.64
62038;BME280;47991;42.974;12.082;2022-11-20T06:41:00;96998.06;;;5.73;89.53
62038;BME280;47991;42.974;12.082;2022-11-20T06:43:28;96997.42;;;5.78;89.82
62038;BME280;47991;42.974;12.082;2022-11-20T06:45:58;96997.31;;;5.83;89.68
62038;BME280;47991;42.974;12.082;2022-11-20T06:48:29;97000.84;;;5.91;89.80
62038;BME280;47991;42.974;12.082;2022-11-20T06:50:57;97004.81;;;6.02;89.79
62038;BME280;47991;42.974;12.082;2022-11-20T06:53:24;97011.71;;;6.16;89.49
62038;BME280;47991;42.974;12.082;2022-11-20T06:55:55;97014.12;;;6.33;89.75
62038;BME280;47991;42.974;12.082;2022-11-20T06:58:26;97018.45;;;6.57;89.88
62038;BME280;47991;42.974;12.082;2022-11-20T07:01:03;97020.16;;;7.01;90.08
62038;BME280;47991;42.974;12.082;2022-11-20T07:03:31;97025.86;;;7.31;89.35
62038;BME280;47991;42.974;12.082;2022-11-20T07:06:00;97020.46;;;7.61;89.29
62038;BME280;47991;42.974;12.082;2022-11-20T07:08:27;97020.13;;;7.72;88.75
62038;BME280;47991;42.974;12.082;2022-11-20T07:11:03;97021.71;;;7.73;88.49
62038;BME280;47991;42.974;12.082;2022-11-20T07:13:32;97025.92;;;7.61;88.49
62038;BME280;47991;42.974;12.082;2022-11-20T07:16:01;97031.02;;;7.49;88.91
62038;BME280;47991;42.974;12.082;2022-11-20T07:18:28;97037.64;;;7.38;89.08
62038;BME280;47991;42.974;12.082;2022-11-20T07:20:56;97041.19;;;7.36;89.75
62038;BME280;47991;42.974;12.082;2022-11-20T07:23:27;97048.27;;;7.48;90.12
62038;BME280;47991;42.974;12.082;2022-11-20T07:25:55;97041.04;;;7.61;89.70
62038;BME280;47991;42.974;12.082;2022-11-20T07:28:22;97040.02;;;7.66;88.86
62038;BME280;47991;42.974;12.082;2022-11-20T07:30:51;97041.17;;;7.69;89.11
62038;BME280;47991;42.974;12.082;2022-11-20T07:33:19;97039.10;;;7.98;89.81
62038;BME280;47991;42.974;12.082;2022-11-20T07:35:48;97040.91;;;8.20;89.51
62038;BME280;47991;42.974;12.082;2022-11-20T07:38:16;97044.79;;;8.36;89.10
62038;BME280;47991;42.974;12.082;2022-11-20T07:40:44;97046.83;;;8.51;88.78
62038;BME280;47991;42.974;12.082;2022-11-20T07:43:11;97049.48;;;8.62;87.95
62038;BME280;47991;42.974;12.082;2022-11-20T07:45:39;97052.95;;;8.58;88.15
62038;BME280;47991;42.974;12.082;2022-11-20T07:48:07;97059.88;;;8.68;88.26
62038;BME280;47991;42.974;12.082;2022-11-20T07:50:34;97064.51;;;8.88;87.44
62038;BME280;47991;42.974;12.082;2022-11-20T07:53:05;97062.91;;;9.09;87.67
62038;BME280;47991;42.974;12.082;2022-11-20T07:55:32;97064.73;;;9.13;86.23
62038;BME280;47991;42.974;12.082;2022-11-20T07:58:00;97071.95;;;9.02;86.64
62038;BME280;47991;42.974;12.082;2022-11-20T08:00:28;97073.75;;;8.86;85.83
62038;BME280;47991;42.974;12.082;2022-11-20T08:02:55;97080.98;;;8.74;85.18
62038;BME280;47991;42.974;12.082;2022-11-20T08:05:23;97089.13;;;8.78;86.03
62038;BME280;47991;42.974;12.082;2022-11-20T08:07:50;97094.61;;;8.84;86.25
62038;BME280;47991;42.974;12.082;2022-11-20T08:10:18;97097.52;;;8.97;87.20
62038;BME280;47991;42.974;12.082;2022-11-20T08:12:50;97103.64;;;8.99;86.57
62038;BME280;47991;42.974;12.082;2022-11-20T08:15:38;97104.44;;;8.85;85.35
62038;BME280;47991;42.974;12.082;2022-11-20T08:18:09;97111.63;;;8.86;85.55
62038;BME280;47991;42.974;12.082;2022-11-20T08:20:40;97110.58;;;9.02;86.02
62038;BME280;47991;42.974;12.082;2022-11-20T08:23:07;97109.44;;;9.15;86.56
62038;BME280;47991;42.974;12.082;2022-11-20T08:25:36;97115.13;;;9.20;85.32
62038;BME280;47991;42.974;12.082;2022-11-20T08:28:06;97121.02;;;9.28;86.10
62038;BME280;47991;42.974;12.082;2022-11-20T08:30:34;97124.77;;;9.32;86.23
62038;BME280;47991;42.974;12.082;2022-11-20T08:33:07;97129.96;;;9.40;86.38
62038;BME280;47991;42.974;12.082;2022-11-20T08:35:36;97125.41;;;9.49;86.32
62038;BME280;47991;42.974;12.082;2022-11-20T08:38:05;97123.73;;;9.52;85.59
62038;BME280;47991;42.974;12.082;2022-11-20T08:40:33;97121.98;;;9.31;84.98
62038;BME280;47991;42.974;12.082;2022-11-20T08:43:00;97117.75;;;9.20;84.61
62038;BME280;47991;42.974;12.082;2022-11-20T08:45:28;97118.05;;;9.37;85.90
62038;BME280;47991;42.974;12.082;2022-11-20T08:48:00;97122.14;;;9.77;85.09
62038;BME280;47991;42.974;12.082;2022-11-20T08:50:28;97127.55;;;9.89;85.12
62038;BME280;47991;42.974;12.082;2022-11-20T08:53:02;97122.49;;;10.12;85.93
62038;BME280;47991;42.974;12.082;2022-11-20T08:55:30;97116.80;;;10.08;83.36
62038;BME280;47991;42.974;12.082;2022-11-20T08:57:57;97112.64;;;10.01;84.47
62038;BME280;47991;42.974;12.082;2022-11-20T09:00:25;97118.34;;;9.90;83.56
62038;BME280;47991;42.974;12.082;2022-11-20T09:02:53;97125.17;;;9.67;83.87
62038;BME280;47991;42.974;12.082;2022-11-20T09:05:21;97125.94;;;9.75;84.62
62038;BME280;47991;42.974;12.082;2022-11-20T09:07:49;97126.93;;;9.96;84.49
62038;BME280;47991;42.974;12.082;2022-11-20T09:10:17;97123.33;;;10.37;82.09
62038;BME280;47991;42.974;12.082;2022-11-20T09:12:48;97125.73;;;11.12;79.40
62038;BME280;47991;42.974;12.082;2022-11-20T09:15:16;97129.55;;;11.52;77.68
62038;BME280;47991;42.974;12.082;2022-11-20T09:17:58;97134.86;;;11.48;77.57
62038;BME280;47991;42.974;12.082;2022-11-20T09:20:28;97135.52;;;11.45;76.61
62038;BME280;47991;42.974;12.082;2022-11-20T09:22:58;97140.70;;;11.90;74.39
62038;BME280;47991;42.974;12.082;2022-11-20T09:25:25;97129.66;;;12.95;72.00
62038;BME280;47991;42.974;12.082;2022-11-20T09:27:57;97127.20;;;15.13;65.25
62038;BME280;47991;42.974;12.082;2022-11-20T09:30:26;97121.98;;;17.11;57.49
62038;BME280;47991;42.974;12.082;2022-11-20T09:32:53;97114.48;;;18.72;53.61
62038;BME280;47991;42.974;12.082;2022-11-20T09:35:22;97116.17;;;19.86;49.74
62038;BME280;47991;42.974;12.082;2022-11-20T09:37:50;97107.84;;;20.93;46.94
62038;BME280;47991;42.974;12.082;2022-11-20T09:40:26;97109.86;;;21.95;46.47
62038;BME280;47991;42.974;12.082;2022-11-20T09:43:13;97108.80;;;23.13;40.72
62038;BME280;47991;42.974;12.082;2022-11-20T09:49:06;97098.46;;;24.60;40.33
62038;BME280;47991;42.974;12.082;2022-11-20T09:52:01;97091.35;;;25.70;36.99
62038;BME280;47991;42.974;12.082;2022-11-20T09:54:38;97090.39;;;25.58;35.17
62038;BME280;47991;42.974;12.082;2022-11-20T09:57:19;97088.48;;;25.47;34.30
62038;BME280;47991;42.974;12.082;2022-11-20T10:00:00;97087.44;;;24.54;35.69
62038;BME280;47991;42.974;12.082;2022-11-20T10:08:30;97105.97;;;21.35;43.11
62038;BME280;47991;42.974;12.082;2022-11-20T10:11:09;97110.43;;;19.50;44.88
62038;BME280;47991;42.974;12.082;2022-11-20T10:27:24;97109.06;;;14.56;53.82
62038;BME280;47991;42.974;12.082;2022-11-20T10:30:03;97104.04;;;14.13;54.74
62038;BME280;47991;42.974;12.082;2022-11-20T10:32:39;97104.21;;;14.13;55.40
62038;BME280;47991;42.974;12.082;2022-11-20T10:37:44;97095.52;;;13.99;56.28
62038;BME280;47991;42.974;12.082;2022-11-20T10:43:06;97099.82;;;13.99;56.41
62038;BME280;47991;42.974;12.082;2022-11-20T10:48:23;97095.84;;;13.42;56.81
62038;BME280;47991;42.974;12.082;2022-11-20T11:01:53;97085.04;;;12.68;58.53
62038;BME280;47991;42.974;12.082;2022-11-20T11:04:42;97082.50;;;12.47;58.94
62038;BME280;47991;42.974;12.082;2022-11-20T11:07:19;97077.40;;;12.30;60.25
62038;BME280;47991;42.974;12.082;2022-11-20T11:09:50;97080.70;;;12.36;59.82
62038;BME280;47991;42.974;12.082;2022-11-20T11:12:21;97077.94;;;12.34;59.48
62038;BME280;47991;42.974;12.082;2022-11-20T11:14:51;97075.37;;;12.32;59.54
62038;BME280;47991;42.974;12.082;2022-11-20T11:17:31;97074.77;;;12.38;59.11
62038;BME280;47991;42.974;12.082;2022-11-20T11:20:04;97070.46;;;12.35;59.50
62038;BME280;47991;42.974;12.082;2022-11-20T11:22:34;97071.50;;;12.31;59.17
62038;BME280;47991;42.974;12.082;2022-11-20T11:25:26;97068.32;;;12.20;59.28
62038;BME280;47991;42.974;12.082;2022-11-20T11:27:57;97067.55;;;12.32;59.22
62038;BME280;47991;42.974;12.082;2022-11-20T11:30:27;97065.02;;;12.30;59.40
62038;BME280;47991;42.974;12.082;2022-11-20T11:33:10;97063.66;;;12.37;59.67
62038;BME280;47991;42.974;12.082;2022-11-20T11:35:45;97067.44;;;12.27;59.31
62038;BME280;47991;42.974;12.082;2022-11-20T11:38:28;97065.28;;;12.12;59.71
62038;BME280;47991;42.974;12.082;2022-11-20T11:40:57;97062.38;;;12.10;61.32
62038;BME280;47991;42.974;12.082;2022-11-20T11:43:28;97062.83;;;12.01;60.88
62038;BME280;47991;42.974;12.082;2022-11-20T11:46:35;97059.75;;;11.89;60.63
62038;BME280;47991;42.974;12.082;2022-11-20T11:51:41;97061.76;;;11.80;60.12
62038;BME280;47991;42.974;12.082;2022-11-20T11:54:20;97067.55;;;11.89;60.38
62038;BME280;47991;42.974;12.082;2022-11-20T11:56:50;97063.76;;;12.11;60.61
62038;BME280;47991;42.974;12.082;2022-11-20T11:59:41;97073.60;;;12.32;60.47
62038;BME280;47991;42.974;12.082;2022-11-20T12:02:34;97080.77;;;12.49;60.24
62038;BME280;47991;42.974;12.082;2022-11-20T12:07:42;97086.46;;;12.57;59.30
62038;BME280;47991;42.974;12.082;2022-11-20T12:10:22;97082.40;;;12.52;59.25
62038;BME280;47991;42.974;12.082;2022-11-20T12:12:54;97081.91;;;12.44;57.93
62038;BME280;47991;42.974;12.082;2022-11-20T12:15:29;97084.20;;;12.37;58.56
62038;BME280;47991;42.974;12.082;2022-11-20T12:17:58;97079.48;;;12.28;57.71
62038;BME280;47991;42.974;12.082;2022-11-20T12:20:41;97084.64;;;12.27;58.65
62038;BME280;47991;42.974;12.082;2022-11-20T12:25:56;97089.67;;;12.33;59.67
62038;BME280;47991;42.974;12.082;2022-11-20T12:29:09;97089.89;;;12.40;58.82
62038;BME280;47991;42.974;12.082;2022-11-20T12:32:06;97092.70;;;12.45;59.13
62038;BME280;47991;42.974;12.082;2022-11-20T12:43:11;97092.95;;;12.59;57.90
62038;BME280;47991;42.974;12.082;2022-11-20T12:46:08;97093.92;;;12.68;59.77
62038;BME280;47991;42.974;12.082;2022-11-20T12:51:42;97090.73;;;12.83;59.05
62038;BME280;47991;42.974;12.082;2022-11-20T12:57:43;97090.26;;;13.11;57.23
62038;BME280;47991;42.974;12.082;2022-11-20T13:00:16;97092.84;;;13.34;55.92
62038;BME280;47991;42.974;12.082;2022-11-20T13:06:05;97089.40;;;13.57;54.46
62038;BME280;47991;42.974;12.082;2022-11-20T13:08:43;97086.95;;;13.49;52.68
62038;BME280;47991;42.974;12.082;2022-11-20T13:17:47;97079.05;;;12.86;51.67
62038;BME280;47991;42.974;12.082;2022-11-20T13:20:06;97080.00;;;12.62;52.82
62038;BME280;47991;42.974;12.082;2022-11-20T13:22:45;97075.84;;;12.86;52.99
62038;BME280;47991;42.974;12.082;2022-11-20T13:25:31;97072.67;;;13.15;52.47
62038;BME280;47991;42.974;12.082;2022-11-20T13:28:02;97078.39;;;13.18;54.37
62038;BME280;47991;42.974;12.082;2022-11-20T13:30:31;97077.61;;;13.19;54.95
62038;BME280;47991;42.974;12.082;2022-11-20T13:33:07;97074.09;;;13.04;53.27
62038;BME280;47991;42.974;12.082;2022-11-20T13:35:42;97075.33;;;12.97;53.97
62038;BME280;47991;42.974;12.082;2022-11-20T13:38:12;97076.38;;;12.89;54.55
62038;BME280;47991;42.974;12.082;2022-11-20T13:40:58;97078.23;;;12.81;53.37
62038;BME280;47991;42.974;12.082;2022-11-20T13:43:41;97081.47;;;12.72;53.96
62038;BME280;47991;42.974;12.082;2022-11-20T13:46:09;97084.19;;;12.60;54.45
62038;BME280;47991;42.974;12.082;2022-11-20T13:48:43;97092.06;;;12.51;54.82
62038;BME280;47991;42.974;12.082;2022-11-20T13:52:04;97088.62;;;12.41;54.57
62038;BME280;47991;42.974;12.082;2022-11-20T13:54:43;97095.15;;;12.30;54.73
62038;BME280;47991;42.974;12.082;2022-11-20T14:00:02;97095.04;;;12.21;54.88
62038;BME280;47991;42.974;12.082;2022-11-20T14:02:38;97088.31;;;12.21;55.21
62038;BME280;47991;42.974;12.082;2022-11-20T14:05:20;97087.54;;;12.22;55.67
62038;BME280;47991;42.974;12.082;2022-11-20T14:07:50;97087.75;;;12.25;55.34
62038;BME280;47991;42.974;12.082;2022-11-20T14:10:27;97080.46;;;12.25;56.24
62038;BME280;47991;42.974;12.082;2022-11-20T14:12:55;97078.44;;;12.20;54.60
62038;BME280;47991;42.974;12.082;2022-11-20T14:15:33;97077.18;;;12.20;55.43
62038;BME280;47991;42.974;12.082;2022-11-20T14:18:18;97080.69;;;12.36;55.92
62038;BME280;47991;42.974;12.082;2022-11-20T14:20:46;97083.35;;;12.55;55.63
62038;BME280;47991;42.974;12.082;2022-11-20T14:23:24;97083.16;;;12.51;54.23
62038;BME280;47991;42.974;12.082;2022-11-20T14:25:53;97080.58;;;12.53;54.05
62038;BME280;47991;42.974;12.082;2022-11-20T14:28:29;97077.90;;;12.54;55.01
62038;BME280;47991;42.974;12.082;2022-11-20T14:30:57;97075.75;;;12.39;53.82
62038;BME280;47991;42.974;12.082;2022-11-20T14:33:26;97074.29;;;12.25;54.19
62038;BME280;47991;42.974;12.082;2022-11-20T14:35:55;97075.13;;;12.06;54.42
62038;BME280;47991;42.974;12.082;2022-11-20T14:38:25;97077.20;;;11.92;54.53
62038;BME280;47991;42.974;12.082;2022-11-20T14:40:54;97076.95;;;11.81;54.50